createdAt,value
2022-11-09T09:13:22.801Z,9.17
2022-11-09T09:15:25.532Z,9.17
2022-11-09T09:17:28.260Z,8.73
2022-11-09T09:25:49.739Z,9.45
2022-11-09T09:27:52.778Z,9.45
2022-11-09T09:29:55.626Z,9.11
2022-11-09T09:31:57.873Z,9.24
2022-11-09T09:34:00.463Z,9.05
2022-11-09T09:36:03.273Z,9.16
2022-11-09T09:38:05.922Z,9.10
2022-11-09T09:40:19.465Z,9.31
2022-11-09T09:42:29.947Z,9.44
2022-11-09T09:44:47.345Z,9.45
2022-11-09T09:46:58.841Z,9.65
2022-11-09T09:49:19.027Z,9.63
2022-11-09T09:51:30.049Z,9.59
2022-11-09T09:53:37.810Z,9.62
2022-11-09T09:55:45.770Z,9.78
2022-11-09T09:57:54.291Z,9.98
2022-11-09T10:00:01.243Z,9.83
2022-11-09T10:02:03.845Z,9.84
2022-11-09T10:04:21.612Z,10.00
2022-11-09T10:06:42.705Z,9.95
2022-11-09T10:08:57.037Z,10.15
2022-11-09T10:11:16.809Z,10.31
2022-11-09T10:13:18.981Z,10.44
2022-11-09T10:15:31.490Z,10.55
2022-11-09T10:17:40.794Z,10.39
2022-11-09T10:19:45.820Z,10.14
2022-11-09T10:21:47.951Z,10.25
2022-11-09T10:24:28.963Z,10.15
2022-11-09T10:26:49.607Z,10.14
2022-11-09T10:29:16.734Z,10.16
2022-11-09T10:31:22.803Z,10.26
2022-11-09T10:33:28.545Z,10.08
2022-11-09T10:35:47.536Z,10.07
2022-11-09T10:37:52.398Z,10.12
2022-11-09T10:40:11.592Z,10.12
2022-11-09T10:42:32.122Z,10.05
2022-11-09T10:44:53.112Z,10.11
2022-11-09T10:47:19.139Z,10.12
2022-11-09T10:49:40.834Z,10.15
2022-11-09T10:52:02.503Z,10.14
2022-11-09T10:54:27.289Z,9.99
2022-11-09T10:57:06.957Z,10.03
2022-11-09T10:59:47.226Z,10.08
2022-11-09T11:02:26.548Z,9.87
2022-11-09T11:04:47.410Z,9.93
2022-11-09T11:07:21.265Z,10.05
2022-11-09T11:09:42.271Z,10.08
2022-11-09T11:12:15.236Z,10.01
2022-11-09T11:14:43.344Z,10.04
2022-11-09T11:17:04.120Z,9.92
2022-11-09T11:19:37.162Z,10.09
2022-11-09T11:22:12.714Z,9.99
2022-11-09T11:24:42.267Z,9.98
2022-11-09T11:27:10.885Z,10.18
2022-11-09T11:29:39.026Z,10.07
2022-11-09T11:31:59.764Z,9.93
2022-11-09T11:34:45.779Z,9.97
2022-11-09T11:37:25.167Z,10.09
2022-11-09T11:40:03.458Z,10.04
2022-11-09T11:42:59.505Z,10.17
2022-11-09T11:45:40.736Z,10.04
2022-11-09T11:48:27.902Z,10.27
2022-11-09T11:51:12.959Z,9.97
2022-11-09T11:54:04.666Z,9.84
2022-11-09T11:56:36.164Z,9.92
2022-11-09T11:59:21.412Z,9.93
2022-11-09T12:01:56.225Z,10.00
2022-11-09T12:04:31.856Z,10.05
2022-11-09T12:07:04.684Z,10.04
2022-11-09T12:09:31.974Z,9.96
2022-11-09T12:12:15.454Z,9.99
2022-11-09T12:15:07.452Z,10.12
2022-11-09T12:17:56.801Z,10.01
2022-11-09T12:20:37.487Z,10.05
2022-11-09T12:23:07.328Z,9.74
2022-11-09T12:25:46.728Z,10.05
2022-11-09T12:28:28.751Z,10.22
2022-11-09T12:31:16.830Z,10.23
2022-11-09T12:33:58.666Z,10.14
2022-11-09T12:36:26.121Z,10.08
2022-11-09T12:39:22.574Z,10.04
2022-11-09T12:41:44.535Z,9.95
2022-11-09T12:44:26.663Z,10.10
2022-11-09T12:46:56.101Z,9.93
2022-11-09T12:49:36.876Z,10.04
2022-11-09T12:51:59.168Z,9.92
2022-11-09T12:54:20.998Z,9.92
2022-11-09T12:57:06.733Z,9.87
2022-11-09T12:59:27.574Z,10.00
2022-11-09T13:01:56.256Z,10.11
2022-11-09T13:04:19.448Z,9.99
2022-11-09T13:06:42.354Z,10.01
2022-11-09T13:09:18.605Z,10.02
2022-11-09T13:11:42.226Z,9.97
2022-11-09T13:14:21.565Z,9.93
2022-11-09T13:16:42.107Z,10.08
2022-11-09T13:19:03.177Z,9.94
2022-11-09T13:21:23.460Z,9.98
2022-11-09T13:24:03.292Z,9.96
2022-11-09T13:26:25.310Z,10.04
2022-11-09T13:29:14.893Z,10.06
2022-11-09T13:32:12.521Z,10.16
2022-11-09T13:34:42.675Z,10.01
2022-11-09T13:37:35.538Z,10.18
2022-11-09T13:39:56.283Z,10.10
2022-11-09T13:42:25.989Z,10.12
2022-11-09T13:44:48.245Z,10.28
2022-11-09T13:47:27.819Z,10.12
2022-11-09T13:49:50.521Z,10.23
2022-11-09T13:52:41.372Z,10.09
2022-11-09T13:55:03.178Z,9.96
2022-11-09T13:57:25.587Z,9.98
2022-11-09T13:59:50.028Z,9.86
2022-11-09T14:02:21.259Z,9.80
2022-11-09T14:04:44.007Z,9.85
2022-11-09T14:07:25.356Z,9.81
2022-11-09T14:10:12.264Z,9.86
2022-11-09T14:13:08.306Z,9.88
2022-11-09T14:15:50.091Z,10.07
2022-11-09T14:18:16.617Z,10.07
2022-11-09T14:20:58.365Z,9.98
2022-11-09T14:23:28.256Z,9.97
2022-11-09T14:25:49.342Z,10.00
2022-11-09T14:28:26.647Z,10.01
2022-11-09T14:30:47.601Z,9.99
2022-11-09T14:33:24.659Z,9.91
2022-11-09T14:35:45.574Z,9.93
2022-11-09T14:38:18.529Z,10.06
2022-11-09T14:40:45.805Z,10.12
2022-11-09T14:43:29.321Z,10.06
2022-11-09T14:45:53.033Z,9.92
2022-11-09T14:48:21.852Z,9.86
2022-11-09T14:50:43.219Z,9.84
2022-11-09T14:53:05.804Z,9.80
2022-11-09T14:55:27.384Z,9.93
2022-11-09T14:57:49.920Z,10.05
2022-11-09T15:00:24.425Z,9.94
2022-11-09T15:02:44.832Z,9.97
2022-11-09T15:05:06.812Z,9.96
2022-11-09T15:07:33.899Z,10.16
2022-11-09T15:10:01.328Z,10.01
2022-11-09T15:12:22.069Z,10.00
2022-11-09T15:14:48.169Z,10.00
2022-11-09T15:17:30.594Z,10.14
2022-11-09T15:19:59.164Z,10.12
2022-11-09T15:22:53.660Z,10.18
2022-11-09T15:25:24.478Z,10.16
2022-11-09T15:27:59.083Z,10.08
2022-11-09T15:30:40.825Z,10.13
2022-11-09T15:33:18.145Z,10.17
2022-11-09T15:35:56.075Z,10.11
2022-11-09T15:38:35.412Z,10.02
2022-11-09T15:40:56.488Z,10.04
2022-11-09T15:43:18.229Z,10.03
2022-11-09T15:45:39.304Z,10.17
2022-11-09T15:48:01.813Z,10.04
2022-11-09T15:50:31.956Z,10.00
2022-11-09T15:52:52.857Z,9.96
2022-11-09T15:55:21.902Z,9.84
2022-11-09T15:57:43.027Z,9.92
2022-11-09T16:00:09.213Z,9.95
2022-11-09T16:02:33.795Z,9.94
2022-11-09T16:04:54.732Z,9.89
2022-11-09T16:07:17.025Z,9.84
2022-11-09T16:09:42.419Z,9.87
2022-11-09T16:12:03.412Z,9.96
2022-11-09T16:14:24.530Z,9.90
2022-11-09T16:16:44.901Z,10.00
2022-11-09T16:19:05.699Z,9.95
2022-11-09T16:21:27.199Z,10.02
2022-11-09T16:23:48.306Z,9.95
2022-11-09T16:26:15.292Z,9.90
2022-11-09T16:28:37.274Z,9.96
2022-11-09T16:30:58.284Z,9.95
2022-11-09T16:33:18.941Z,9.89
2022-11-09T16:35:40.029Z,9.94
2022-11-09T16:38:03.729Z,10.00
2022-11-09T16:40:25.937Z,10.14
2022-11-09T16:42:48.463Z,9.89
2022-11-09T16:45:13.633Z,9.90
2022-11-09T16:47:38.522Z,9.89
2022-11-09T16:49:58.996Z,9.92
2022-11-09T16:52:19.744Z,10.03
2022-11-09T16:54:40.734Z,10.02
2022-11-09T16:57:02.059Z,9.90
2022-11-09T16:59:24.446Z,9.93
2022-11-09T17:01:51.585Z,9.95
2022-11-09T17:04:12.771Z,9.84
2022-11-09T17:06:33.966Z,9.85
2022-11-09T17:08:58.071Z,9.87
2022-11-09T17:11:20.074Z,9.83
2022-11-09T17:13:41.065Z,9.94
2022-11-09T17:16:03.892Z,9.96
2022-11-09T17:18:25.025Z,10.00
2022-11-09T17:20:50.338Z,9.97
2022-11-09T17:23:13.869Z,10.02
2022-11-09T17:25:34.829Z,9.98
2022-11-09T17:27:55.949Z,10.01
2022-11-09T17:30:16.766Z,10.06
2022-11-09T17:32:38.175Z,10.17
2022-11-09T17:34:59.335Z,10.11
2022-11-09T17:37:20.928Z,10.05
2022-11-09T17:39:41.798Z,10.21
2022-11-09T17:42:03.413Z,10.08
2022-11-09T17:44:24.333Z,10.11
2022-11-09T17:46:45.003Z,10.14
2022-11-09T17:49:10.000Z,10.13
2022-11-09T17:51:32.663Z,10.13
2022-11-09T17:53:54.847Z,10.11
2022-11-09T17:56:15.994Z,10.02
2022-11-09T17:58:44.573Z,10.07
2022-11-09T18:01:07.830Z,10.16
2022-11-09T18:03:33.211Z,10.12
2022-11-09T18:05:54.794Z,10.08
2022-11-09T18:08:16.858Z,10.19
2022-11-09T18:10:44.949Z,10.17
2022-11-09T18:13:06.691Z,10.18
2022-11-09T18:15:28.391Z,10.08
2022-11-09T18:17:49.879Z,10.14
2022-11-09T18:20:11.218Z,10.13
2022-11-09T18:22:32.320Z,10.14
2022-11-09T18:24:53.843Z,10.03
2022-11-09T18:27:15.468Z,10.18
2022-11-09T18:29:36.370Z,10.16
2022-11-09T18:31:57.882Z,10.23
2022-11-09T18:34:18.854Z,10.32
2022-11-09T18:36:40.024Z,10.25
2022-11-09T18:39:03.485Z,10.29
2022-11-09T18:41:34.027Z,10.24
2022-11-09T18:43:58.403Z,10.32
2022-11-09T18:46:20.531Z,10.27
2022-11-09T18:48:41.291Z,9.95
2022-11-09T18:51:03.182Z,9.90
2022-11-09T18:53:27.428Z,10.07
2022-11-09T18:55:49.183Z,10.12
2022-11-09T18:58:10.422Z,10.19
2022-11-09T19:00:31.172Z,10.23
2022-11-09T19:02:52.595Z,10.35
2022-11-09T19:05:14.050Z,10.26
2022-11-09T19:07:38.949Z,10.21
2022-11-09T19:10:00.820Z,10.30
2022-11-09T19:12:21.988Z,10.38
2022-11-09T19:14:44.389Z,10.30
2022-11-09T19:17:06.530Z,10.33
2022-11-09T19:19:28.003Z,10.37
2022-11-09T19:21:52.196Z,10.30
2022-11-09T19:24:16.486Z,10.13
2022-11-09T19:26:37.411Z,9.92
2022-11-09T19:28:59.003Z,9.86
2022-11-09T19:31:24.297Z,9.98
2022-11-09T19:33:45.465Z,10.04
2022-11-09T19:36:29.248Z,10.08
2022-11-09T19:38:50.946Z,10.03
2022-11-09T19:41:12.262Z,10.07
2022-11-09T19:43:33.652Z,10.19
2022-11-09T19:45:55.259Z,10.15
2022-11-09T19:48:15.970Z,10.25
2022-11-09T19:50:37.023Z,10.25
2022-11-09T19:52:58.041Z,10.33
2022-11-09T19:55:19.361Z,10.29
2022-11-09T19:57:39.767Z,10.19
2022-11-09T20:00:01.063Z,10.22
2022-11-09T20:02:22.561Z,10.02
2022-11-09T20:04:47.977Z,9.98
2022-11-09T20:07:09.140Z,9.90
2022-11-09T20:09:31.018Z,9.71
2022-11-09T20:12:10.560Z,9.66
2022-11-09T20:14:31.773Z,9.61
2022-11-09T20:16:54.718Z,9.58
2022-11-09T20:19:16.048Z,9.68
2022-11-09T20:21:38.626Z,9.64
2022-11-09T20:23:59.502Z,9.58
2022-11-09T20:26:20.662Z,9.76
2022-11-09T20:28:42.063Z,9.91
2022-11-09T20:31:14.858Z,10.05
2022-11-09T20:33:35.945Z,10.02
2022-11-09T20:35:57.146Z,9.99
2022-11-09T20:38:19.096Z,10.01
2022-11-09T20:40:40.589Z,10.10
2022-11-09T20:43:01.765Z,10.13
2022-11-09T20:45:22.815Z,10.05
2022-11-09T20:48:05.028Z,9.98
2022-11-09T20:50:25.326Z,9.82
2022-11-09T20:52:46.468Z,10.02
2022-11-09T20:55:07.951Z,9.79
2022-11-09T20:57:30.082Z,9.78
2022-11-09T20:59:51.769Z,9.82
2022-11-09T21:02:16.943Z,9.90
2022-11-09T21:04:38.351Z,10.01
2022-11-09T21:07:00.053Z,9.93
2022-11-09T21:09:20.913Z,9.98
2022-11-09T21:12:00.585Z,9.93
2022-11-09T21:14:21.178Z,9.94
2022-11-09T21:16:42.460Z,9.82
2022-11-09T21:19:03.266Z,9.70
2022-11-09T21:21:26.071Z,9.76
2022-11-09T21:24:05.592Z,9.62
2022-11-09T21:26:45.892Z,9.67
2022-11-09T21:29:28.755Z,9.81
2022-11-09T21:31:49.983Z,9.86
2022-11-09T21:34:10.658Z,9.86
2022-11-09T21:36:31.315Z,9.93
2022-11-09T21:38:52.042Z,10.02
2022-11-09T21:41:31.870Z,10.11
2022-11-09T21:43:56.515Z,10.05
2022-11-09T21:46:17.082Z,9.75
2022-11-09T21:48:37.878Z,9.85
2022-11-09T21:50:58.601Z,9.69
2022-11-09T21:53:19.403Z,9.61
2022-11-09T21:55:40.495Z,9.74
2022-11-09T21:58:01.381Z,9.87
2022-11-09T22:00:22.144Z,9.96
2022-11-09T22:02:42.943Z,9.99
2022-11-09T22:05:03.940Z,10.03
2022-11-09T22:07:24.638Z,10.01
2022-11-09T22:10:09.259Z,10.04
2022-11-09T22:12:50.852Z,9.98
2022-11-09T22:15:30.297Z,10.03
2022-11-09T22:17:53.989Z,9.98
2022-11-09T22:20:33.242Z,10.05
2022-11-09T22:22:54.100Z,10.04
2022-11-09T22:25:14.792Z,9.94
2022-11-09T22:27:35.675Z,9.94
2022-11-09T22:29:56.485Z,9.98
2022-11-09T22:32:17.270Z,9.92
2022-11-09T22:34:38.070Z,10.01
2022-11-09T22:36:58.985Z,9.93
2022-11-09T22:39:19.951Z,9.99
2022-11-09T22:41:40.783Z,9.96
2022-11-09T22:44:01.380Z,9.99
2022-11-09T22:46:22.399Z,10.04
2022-11-09T22:48:44.504Z,10.14
2022-11-09T22:51:05.877Z,10.15
2022-11-09T22:53:27.138Z,10.20
2022-11-09T22:55:55.027Z,10.18
2022-11-09T22:58:15.684Z,10.01
2022-11-09T23:00:36.411Z,9.79
2022-11-09T23:02:57.615Z,9.90
2022-11-09T23:05:18.335Z,10.03
2022-11-09T23:07:39.144Z,9.89
2022-11-09T23:10:00.263Z,10.01
2022-11-09T23:12:20.969Z,10.09
2022-11-09T23:15:00.317Z,10.03
2022-11-09T23:17:39.867Z,9.82
